sensor_id;sensor_type;location;lat;lon;timestamp;P1;durP1;ratioP1;P2;durP2;ratioP2
5217;SDS011;26539;51.064;6.346;2022-08-19T00:01:07;24.77;;;21.60;;
5217;SDS011;26539;51.064;6.346;2022-08-19T00:03:33;25.13;;;21.47;;
5217;SDS011;26539;51.064;6.346;2022-08-19T00:05:59;26.00;;;23.30;;
5217;SDS011;26539;51.064;6.346;2022-08-19T00:08:24;26.53;;;21.80;;
5217;SDS011;26539;51.064;6.346;2022-08-19T00:10:50;25.07;;;22.57;;
5217;SDS011;26539;51.064;6.346;2022-08-19T00:13:16;26.60;;;23.90;;
5217;SDS011;26539;51.064;6.346;2022-08-19T00:15:41;26.97;;;24.17;;
5217;SDS011;26539;51.064;6.346;2022-08-19T00:18:09;25.70;;;23.10;;
5217;SDS011;26539;51.064;6.346;2022-08-19T00:20:35;24.77;;;22.47;;
5217;SDS011;26539;51.064;6.346;2022-08-19T00:23:03;25.57;;;23.00;;
5217;SDS011;26539;51.064;6.346;2022-08-19T00:25:28;24.93;;;22.37;;
5217;SDS011;26539;51.064;6.346;2022-08-19T00:27:54;26.13;;;23.60;;
5217;SDS011;26539;51.064;6.346;2022-08-19T00:30:20;24.43;;;21.97;;
5217;SDS011;26539;51.064;6.346;2022-08-19T00:32:46;24.23;;;21.73;;
5217;SDS011;26539;51.064;6.346;2022-08-19T00:35:12;26.53;;;23.63;;
5217;SDS011;26539;51.064;6.346;2022-08-19T00:37:37;25.20;;;22.70;;
5217;SDS011;26539;51.064;6.346;2022-08-19T00:40:08;26.67;;;23.97;;
5217;SDS011;26539;51.064;6.346;2022-08-19T00:42:35;25.73;;;23.20;;
5217;SDS011;26539;51.064;6.346;2022-08-19T00:45:01;24.77;;;22.30;;
5217;SDS011;26539;51.064;6.346;2022-08-19T00:47:27;24.57;;;22.10;;
5217;SDS011;26539;51.064;6.346;2022-08-19T00:49:54;26.60;;;21.60;;
5217;SDS011;26539;51.064;6.346;2022-08-19T00:52:29;22.87;;;20.77;;
5217;SDS011;26539;51.064;6.346;2022-08-19T00:54:58;23.00;;;20.80;;
5217;SDS011;26539;51.064;6.346;2022-08-19T00:57:30;23.57;;;21.27;;
5217;SDS011;26539;51.064;6.346;2022-08-19T01:00:00;24.57;;;21.67;;
5217;SDS011;26539;51.064;6.346;2022-08-19T01:02:27;22.73;;;20.40;;
5217;SDS011;26539;51.064;6.346;2022-08-19T01:04:53;24.60;;;22.00;;
5217;SDS011;26539;51.064;6.346;2022-08-19T01:07:19;24.00;;;21.60;;
5217;SDS011;26539;51.064;6.346;2022-08-19T01:09:45;26.33;;;23.50;;
5217;SDS011;26539;51.064;6.346;2022-08-19T01:12:11;26.43;;;22.93;;
5217;SDS011;26539;51.064;6.346;2022-08-19T01:14:37;31.53;;;24.50;;
5217;SDS011;26539;51.064;6.346;2022-08-19T01:17:04;27.53;;;24.60;;
5217;SDS011;26539;51.064;6.346;2022-08-19T01:19:33;25.23;;;22.70;;
5217;SDS011;26539;51.064;6.346;2022-08-19T01:22:11;25.77;;;23.20;;
5217;SDS011;26539;51.064;6.346;2022-08-19T01:24:41;26.47;;;23.77;;
5217;SDS011;26539;51.064;6.346;2022-08-19T01:27:07;29.40;;;26.30;;
5217;SDS011;26539;51.064;6.346;2022-08-19T01:29:33;30.80;;;27.70;;
5217;SDS011;26539;51.064;6.346;2022-08-19T01:32:01;31.90;;;28.70;;
5217;SDS011;26539;51.064;6.346;2022-08-19T01:34:27;32.37;;;29.20;;
5217;SDS011;26539;51.064;6.346;2022-08-19T01:36:53;33.37;;;29.97;;
5217;SDS011;26539;51.064;6.346;2022-08-19T01:39:20;36.23;;;32.43;;
5217;SDS011;26539;51.064;6.346;2022-08-19T01:41:48;35.03;;;31.50;;
5217;SDS011;26539;51.064;6.346;2022-08-19T01:44:14;34.53;;;30.93;;
5217;SDS011;26539;51.064;6.346;2022-08-19T01:46:41;33.93;;;30.50;;
5217;SDS011;26539;51.064;6.346;2022-08-19T01:49:08;35.33;;;31.77;;
5217;SDS011;26539;51.064;6.346;2022-08-19T01:51:35;33.83;;;30.50;;
5217;SDS011;26539;51.064;6.346;2022-08-19T01:54:01;35.07;;;31.37;;
5217;SDS011;26539;51.064;6.346;2022-08-19T01:56:26;38.37;;;30.57;;
5217;SDS011;26539;51.064;6.346;2022-08-19T01:58:54;38.20;;;33.30;;
5217;SDS011;26539;51.064;6.346;2022-08-19T02:01:25;37.77;;;33.93;;
5217;SDS011;26539;51.064;6.346;2022-08-19T02:03:50;40.13;;;36.07;;
5217;SDS011;26539;51.064;6.346;2022-08-19T02:06:18;37.90;;;34.17;;
5217;SDS011;26539;51.064;6.346;2022-08-19T02:08:44;41.47;;;37.17;;
5217;SDS011;26539;51.064;6.346;2022-08-19T02:11:17;42.40;;;38.00;;
5217;SDS011;26539;51.064;6.346;2022-08-19T02:13:47;42.47;;;38.10;;
5217;SDS011;26539;51.064;6.346;2022-08-19T02:16:14;41.10;;;36.13;;
5217;SDS011;26539;51.064;6.346;2022-08-19T02:18:41;41.97;;;37.67;;
5217;SDS011;26539;51.064;6.346;2022-08-19T02:21:06;43.53;;;39.23;;
5217;SDS011;26539;51.064;6.346;2022-08-19T02:23:32;45.47;;;40.77;;
5217;SDS011;26539;51.064;6.346;2022-08-19T02:25:57;45.53;;;40.67;;
5217;SDS011;26539;51.064;6.346;2022-08-19T02:28:23;49.10;;;42.50;;
5217;SDS011;26539;51.064;6.346;2022-08-19T02:30:49;47.17;;;42.03;;
5217;SDS011;26539;51.064;6.346;2022-08-19T02:33:15;47.33;;;42.40;;
5217;SDS011;26539;51.064;6.346;2022-08-19T02:35:42;49.53;;;44.43;;
5217;SDS011;26539;51.064;6.346;2022-08-19T02:38:09;51.43;;;43.53;;
5217;SDS011;26539;51.064;6.346;2022-08-19T02:40:56;48.90;;;43.70;;
5217;SDS011;26539;51.064;6.346;2022-08-19T02:43:30;50.13;;;44.77;;
5217;SDS011;26539;51.064;6.346;2022-08-19T02:45:57;52.63;;;46.90;;
5217;SDS011;26539;51.064;6.346;2022-08-19T02:48:23;54.50;;;47.70;;
5217;SDS011;26539;51.064;6.346;2022-08-19T02:50:51;51.23;;;45.47;;
5217;SDS011;26539;51.064;6.346;2022-08-19T02:53:21;53.20;;;46.00;;
5217;SDS011;26539;51.064;6.346;2022-08-19T02:55:48;52.23;;;46.70;;
5217;SDS011;26539;51.064;6.346;2022-08-19T02:58:14;54.30;;;47.17;;
5217;SDS011;26539;51.064;6.346;2022-08-19T03:00:41;56.20;;;45.80;;
5217;SDS011;26539;51.064;6.346;2022-08-19T03:03:08;53.77;;;47.60;;
5217;SDS011;26539;51.064;6.346;2022-08-19T03:05:34;54.50;;;47.53;;
5217;SDS011;26539;51.064;6.346;2022-08-19T03:07:59;55.03;;;46.80;;
5217;SDS011;26539;51.064;6.346;2022-08-19T03:10:25;54.40;;;47.20;;
5217;SDS011;26539;51.064;6.346;2022-08-19T03:12:50;59.57;;;49.87;;
5217;SDS011;26539;51.064;6.346;2022-08-19T03:15:16;54.93;;;47.37;;
5217;SDS011;26539;51.064;6.346;2022-08-19T03:17:41;57.50;;;48.47;;
5217;SDS011;26539;51.064;6.346;2022-08-19T03:20:07;53.20;;;46.80;;
5217;SDS011;26539;51.064;6.346;2022-08-19T03:22:33;52.30;;;46.60;;
5217;SDS011;26539;51.064;6.346;2022-08-19T03:24:59;59.30;;;47.20;;
5217;SDS011;26539;51.064;6.346;2022-08-19T03:27:24;55.07;;;49.07;;
5217;SDS011;26539;51.064;6.346;2022-08-19T03:29:50;55.53;;;47.77;;
5217;SDS011;26539;51.064;6.346;2022-08-19T03:32:16;54.20;;;47.43;;
5217;SDS011;26539;51.064;6.346;2022-08-19T03:34:42;58.90;;;49.23;;
5217;SDS011;26539;51.064;6.346;2022-08-19T03:37:09;54.80;;;45.83;;
5217;SDS011;26539;51.064;6.346;2022-08-19T03:39:37;59.93;;;48.50;;
5217;SDS011;26539;51.064;6.346;2022-08-19T03:42:04;56.33;;;47.47;;
5217;SDS011;26539;51.064;6.346;2022-08-19T03:44:30;70.40;;;48.77;;
5217;SDS011;26539;51.064;6.346;2022-08-19T03:46:58;54.20;;;47.60;;
5217;SDS011;26539;51.064;6.346;2022-08-19T03:49:25;63.40;;;46.80;;
5217;SDS011;26539;51.064;6.346;2022-08-19T03:51:54;60.80;;;48.20;;
5217;SDS011;26539;51.064;6.346;2022-08-19T03:54:22;56.33;;;46.33;;
5217;SDS011;26539;51.064;6.346;2022-08-19T03:56:53;55.50;;;45.87;;
5217;SDS011;26539;51.064;6.346;2022-08-19T03:59:22;60.80;;;46.27;;
5217;SDS011;26539;51.064;6.346;2022-08-19T04:01:52;52.47;;;44.57;;
5217;SDS011;26539;51.064;6.346;2022-08-19T04:04:19;57.17;;;45.27;;
5217;SDS011;26539;51.064;6.346;2022-08-19T04:06:45;54.50;;;45.00;;
5217;SDS011;26539;51.064;6.346;2022-08-19T04:09:12;55.90;;;45.50;;
5217;SDS011;26539;51.064;6.346;2022-08-19T04:11:41;54.33;;;45.23;;
5217;SDS011;26539;51.064;6.346;2022-08-19T04:14:13;59.00;;;47.13;;
5217;SDS011;26539;51.064;6.346;2022-08-19T04:16:41;64.83;;;48.87;;
5217;SDS011;26539;51.064;6.346;2022-08-19T04:19:09;65.43;;;48.90;;
5217;SDS011;26539;51.064;6.346;2022-08-19T04:21:34;59.57;;;49.60;;
5217;SDS011;26539;51.064;6.346;2022-08-19T04:24:01;63.67;;;51.93;;
5217;SDS011;26539;51.064;6.346;2022-08-19T04:26:28;57.97;;;47.20;;
5217;SDS011;26539;51.064;6.346;2022-08-19T04:28:57;66.50;;;49.20;;
5217;SDS011;26539;51.064;6.346;2022-08-19T04:31:25;59.33;;;49.23;;
5217;SDS011;26539;51.064;6.346;2022-08-19T04:33:52;65.93;;;50.83;;
5217;SDS011;26539;51.064;6.346;2022-08-19T04:36:20;61.90;;;50.70;;
5217;SDS011;26539;51.064;6.346;2022-08-19T04:38:47;62.27;;;50.67;;
5217;SDS011;26539;51.064;6.346;2022-08-19T04:41:14;61.20;;;51.07;;
5217;SDS011;26539;51.064;6.346;2022-08-19T04:43:59;63.73;;;50.60;;
5217;SDS011;26539;51.064;6.346;2022-08-19T04:46:24;64.00;;;50.90;;
5217;SDS011;26539;51.064;6.346;2022-08-19T04:48:50;73.07;;;51.30;;
5217;SDS011;26539;51.064;6.346;2022-08-19T04:51:17;69.00;;;52.37;;
5217;SDS011;26539;51.064;6.346;2022-08-19T04:53:43;69.13;;;52.77;;
5217;SDS011;26539;51.064;6.346;2022-08-19T04:56:13;65.30;;;49.50;;
5217;SDS011;26539;51.064;6.346;2022-08-19T04:58:42;65.70;;;49.80;;
5217;SDS011;26539;51.064;6.346;2022-08-19T05:01:10;64.10;;;52.57;;
5217;SDS011;26539;51.064;6.346;2022-08-19T05:03:38;70.30;;;50.17;;
5217;SDS011;26539;51.064;6.346;2022-08-19T05:06:08;64.00;;;49.70;;
5217;SDS011;26539;51.064;6.346;2022-08-19T05:08:36;66.27;;;50.20;;
5217;SDS011;26539;51.064;6.346;2022-08-19T05:11:15;67.00;;;50.70;;
5217;SDS011;26539;51.064;6.346;2022-08-19T05:13:42;60.80;;;49.80;;
5217;SDS011;26539;51.064;6.346;2022-08-19T05:16:10;70.73;;;51.17;;
5217;SDS011;26539;51.064;6.346;2022-08-19T05:18:37;71.10;;;53.50;;
5217;SDS011;26539;51.064;6.346;2022-08-19T05:21:21;68.03;;;52.07;;
5217;SDS011;26539;51.064;6.346;2022-08-19T05:24:06;63.07;;;52.23;;
5217;SDS011;26539;51.064;6.346;2022-08-19T05:26:34;71.20;;;51.30;;
5217;SDS011;26539;51.064;6.346;2022-08-19T05:29:04;59.30;;;47.53;;
5217;SDS011;26539;51.064;6.346;2022-08-19T05:31:32;55.50;;;46.27;;
5217;SDS011;26539;51.064;6.346;2022-08-19T05:33:58;55.80;;;46.00;;
5217;SDS011;26539;51.064;6.346;2022-08-19T05:36:27;53.97;;;43.17;;
5217;SDS011;26539;51.064;6.346;2022-08-19T05:38:53;55.10;;;44.60;;
5217;SDS011;26539;51.064;6.346;2022-08-19T05:41:19;59.13;;;47.77;;
5217;SDS011;26539;51.064;6.346;2022-08-19T05:43:46;52.83;;;44.50;;
5217;SDS011;26539;51.064;6.346;2022-08-19T05:46:18;49.07;;;43.73;;
5217;SDS011;26539;51.064;6.346;2022-08-19T05:48:45;49.03;;;42.90;;
5217;SDS011;26539;51.064;6.346;2022-08-19T05:51:11;53.43;;;44.57;;
5217;SDS011;26539;51.064;6.346;2022-08-19T05:53:37;46.37;;;41.33;;
5217;SDS011;26539;51.064;6.346;2022-08-19T05:56:07;46.67;;;41.23;;
5217;SDS011;26539;51.064;6.346;2022-08-19T05:58:34;52.53;;;42.23;;
5217;SDS011;26539;51.064;6.346;2022-08-19T06:01:01;47.77;;;42.83;;
5217;SDS011;26539;51.064;6.346;2022-08-19T06:03:31;45.17;;;40.40;;
5217;SDS011;26539;51.064;6.346;2022-08-19T06:05:58;46.20;;;41.03;;
5217;SDS011;26539;51.064;6.346;2022-08-19T06:08:27;46.97;;;41.07;;
5217;SDS011;26539;51.064;6.346;2022-08-19T06:10:53;51.90;;;43.20;;
5217;SDS011;26539;51.064;6.346;2022-08-19T06:13:20;44.87;;;40.37;;
5217;SDS011;26539;51.064;6.346;2022-08-19T06:15:47;45.77;;;41.27;;
5217;SDS011;26539;51.064;6.346;2022-08-19T06:18:13;44.47;;;40.13;;
5217;SDS011;26539;51.064;6.346;2022-08-19T06:20:40;46.90;;;42.07;;
5217;SDS011;26539;51.064;6.346;2022-08-19T06:23:06;45.53;;;40.90;;
5217;SDS011;26539;51.064;6.346;2022-08-19T06:25:33;50.70;;;43.60;;
5217;SDS011;26539;51.064;6.346;2022-08-19T06:28:00;47.37;;;42.47;;
5217;SDS011;26539;51.064;6.346;2022-08-19T06:30:25;47.63;;;42.80;;
5217;SDS011;26539;51.064;6.346;2022-08-19T06:32:51;50.30;;;45.23;;
5217;SDS011;26539;51.064;6.346;2022-08-19T06:35:17;48.60;;;43.40;;
5217;SDS011;26539;51.064;6.346;2022-08-19T06:37:43;50.73;;;44.20;;
5217;SDS011;26539;51.064;6.346;2022-08-19T06:40:09;49.33;;;44.03;;
5217;SDS011;26539;51.064;6.346;2022-08-19T06:42:37;52.40;;;45.17;;
5217;SDS011;26539;51.064;6.346;2022-08-19T06:45:03;48.63;;;43.43;;
5217;SDS011;26539;51.064;6.346;2022-08-19T06:47:29;50.70;;;44.73;;
5217;SDS011;26539;51.064;6.346;2022-08-19T06:49:57;54.63;;;46.00;;
5217;SDS011;26539;51.064;6.346;2022-08-19T06:52:29;50.00;;;43.17;;
5217;SDS011;26539;51.064;6.346;2022-08-19T06:54:55;48.83;;;43.60;;
